Hanley, Canada
Current Conditions -  °F | °C
As of 4:00 PM on Sunday 23 Nov 2014 (Local Time) from CYXE Reporting Station
Broken Clouds Broken Clouds  
Wind Chill: 16°   Ceiling: 5000
Heat Index: 16°   Visibility: 15mi
Dew Point: 10°   Wind: 2mph
Humidity: 79%   Direction: NA
Pressure: 29.85"   Gusts: NA
Location:  51.62°N, 106.43°W
Report Text: CYXE 232200Z VRB02KT 15SM BKN050 M09/M12 A2985 RMK SC7 SLP148
Loading
Personal Weather Stations






























Interactive Weather Map New forecast layout! Learn more

10-Day Weather Forecast

Advertisements
Track Severe Weather on mobile